createdAt,value
2018-08-03T00:00:07.498Z,10.17
2018-08-03T00:02:35.348Z,10.23
2018-08-03T00:05:03.243Z,9.80
2018-08-03T00:07:31.098Z,11.03
2018-08-03T00:09:58.930Z,11.00
2018-08-03T00:12:26.822Z,10.77
2018-08-03T00:14:54.652Z,10.50
2018-08-03T00:17:22.509Z,10.90
2018-08-03T00:19:50.329Z,11.60
2018-08-03T00:22:18.201Z,11.13
2018-08-03T00:24:46.122Z,10.77
2018-08-03T00:27:13.954Z,10.63
2018-08-03T00:29:41.931Z,10.17
2018-08-03T00:32:09.794Z,11.07
2018-08-03T00:34:37.682Z,10.17
2018-08-03T00:37:05.655Z,11.20
2018-08-03T00:39:33.513Z,10.70
2018-08-03T00:42:01.367Z,9.87
2018-08-03T00:44:29.234Z,9.90
2018-08-03T00:46:57.092Z,10.10
2018-08-03T00:49:24.954Z,10.50
2018-08-03T00:51:52.828Z,10.83
2018-08-03T00:54:20.654Z,11.07
2018-08-03T00:56:48.535Z,10.57
2018-08-03T00:59:16.470Z,10.53
2018-08-03T01:01:44.289Z,10.73
2018-08-03T01:04:12.139Z,10.37
2018-08-03T01:06:40.025Z,10.53
2018-08-03T01:09:09.859Z,9.90
2018-08-03T01:11:37.759Z,10.77
2018-08-03T01:14:06.082Z,10.47
2018-08-03T01:16:38.388Z,11.10
2018-08-03T01:19:06.254Z,10.57
2018-08-03T01:21:34.182Z,12.40
2018-08-03T01:24:02.256Z,14.33
2018-08-03T01:26:30.177Z,11.43
2018-08-03T01:28:58.070Z,12.37
2018-08-03T01:31:25.916Z,12.10
2018-08-03T01:33:53.843Z,11.30
2018-08-03T01:36:21.689Z,10.70
2018-08-03T01:38:49.509Z,10.67
2018-08-03T01:41:17.367Z,10.90
2018-08-03T01:43:45.217Z,9.60
2018-08-03T01:46:13.039Z,9.73
2018-08-03T01:48:40.909Z,9.60
2018-08-03T01:51:08.768Z,10.87
2018-08-03T01:53:36.635Z,9.93
2018-08-03T01:56:04.610Z,10.07
2018-08-03T01:58:32.490Z,9.87
2018-08-03T02:01:00.453Z,9.77
2018-08-03T02:03:28.326Z,10.10
2018-08-03T02:05:56.418Z,10.00
2018-08-03T02:08:24.313Z,9.90
2018-08-03T02:10:52.274Z,10.40
2018-08-03T02:13:20.142Z,9.53
2018-08-03T02:15:48.002Z,10.23
2018-08-03T02:18:15.869Z,9.97
2018-08-03T02:20:43.700Z,9.80
2018-08-03T02:23:11.578Z,9.53
2018-08-03T02:25:39.426Z,9.53
2018-08-03T02:28:07.327Z,10.23
2018-08-03T02:30:35.200Z,9.07
2018-08-03T02:33:03.075Z,9.40
2018-08-03T02:35:31.036Z,10.17
2018-08-03T02:37:58.874Z,9.37
2018-08-03T02:40:26.778Z,9.13
2018-08-03T02:42:54.625Z,9.23
2018-08-03T02:45:22.489Z,8.80
2018-08-03T02:47:50.337Z,8.80
2018-08-03T02:50:18.191Z,9.60
2018-08-03T02:52:46.054Z,10.00
2018-08-03T02:55:13.954Z,8.93
2018-08-03T02:57:41.838Z,9.57
2018-08-03T03:00:09.684Z,8.97
2018-08-03T03:02:37.537Z,9.53
2018-08-03T03:05:05.494Z,8.00
2018-08-03T03:07:33.375Z,9.17
2018-08-03T03:10:01.199Z,9.50
2018-08-03T03:12:29.299Z,9.27
2018-08-03T03:14:57.155Z,11.40
2018-08-03T03:17:25.039Z,13.30
2018-08-03T03:19:52.918Z,12.80
2018-08-03T03:22:20.775Z,11.80
2018-08-03T03:24:48.602Z,12.93
2018-08-03T03:27:16.445Z,12.70
2018-08-03T03:29:44.289Z,11.67
2018-08-03T03:32:12.203Z,11.60
2018-08-03T03:34:40.051Z,11.33
2018-08-03T03:37:07.903Z,11.53
2018-08-03T03:39:35.761Z,9.27
2018-08-03T03:42:03.635Z,9.50
2018-08-03T03:44:31.453Z,9.60
2018-08-03T03:46:59.349Z,9.73
2018-08-03T03:49:27.190Z,8.70
2018-08-03T03:51:55.056Z,8.70
2018-08-03T03:54:22.908Z,8.27
2018-08-03T03:56:50.787Z,8.47
2018-08-03T03:59:18.704Z,8.13
2018-08-03T04:01:46.494Z,7.87
2018-08-03T04:04:14.370Z,8.13
2018-08-03T04:06:42.254Z,7.50
2018-08-03T04:09:11.758Z,7.77
2018-08-03T04:11:39.822Z,7.60
2018-08-03T04:14:07.895Z,7.63
2018-08-03T04:16:36.271Z,7.67
2018-08-03T04:19:04.098Z,8.30
2018-08-03T04:21:31.949Z,7.80
2018-08-03T04:23:59.815Z,7.67
2018-08-03T04:26:27.687Z,7.03
2018-08-03T04:28:55.556Z,6.73
2018-08-03T04:31:23.377Z,7.90
2018-08-03T04:33:51.203Z,7.10
2018-08-03T04:36:19.066Z,6.70
2018-08-03T04:38:46.906Z,8.40
2018-08-03T04:41:14.779Z,7.10
2018-08-03T04:43:42.597Z,6.63
2018-08-03T04:46:10.450Z,6.90
2018-08-03T04:48:38.323Z,6.83
2018-08-03T04:51:06.192Z,6.57
2018-08-03T04:53:34.010Z,6.47
2018-08-03T04:56:01.889Z,6.57
2018-08-03T04:58:29.801Z,6.40
2018-08-03T05:00:57.645Z,6.50
2018-08-03T05:03:25.505Z,7.27
2018-08-03T05:05:53.441Z,8.60
2018-08-03T05:08:21.674Z,7.23
2018-08-03T05:10:49.508Z,7.83
2018-08-03T05:13:17.318Z,8.70
2018-08-03T05:15:45.157Z,9.00
2018-08-03T05:18:12.967Z,9.30
2018-08-03T05:20:40.792Z,8.67
2018-08-03T05:23:08.622Z,7.40
2018-08-03T05:25:36.549Z,7.00
2018-08-03T05:28:04.459Z,6.73
2018-08-03T05:30:32.336Z,7.03
2018-08-03T05:33:00.311Z,7.40
2018-08-03T05:35:28.189Z,6.70
2018-08-03T05:37:56.062Z,6.80
2018-08-03T05:40:23.884Z,6.77
2018-08-03T05:42:51.738Z,7.60
2018-08-03T05:45:19.660Z,7.00
2018-08-03T05:47:47.520Z,7.00
2018-08-03T05:50:15.459Z,7.67
2018-08-03T05:52:43.287Z,7.40
2018-08-03T05:55:12.013Z,7.63
2018-08-03T05:57:39.869Z,7.17
2018-08-03T06:00:07.792Z,7.73
2018-08-03T06:02:36.268Z,7.63
2018-08-03T06:05:05.218Z,7.87
2018-08-03T06:07:33.839Z,7.73
2018-08-03T06:10:01.693Z,7.47
2018-08-03T06:12:29.549Z,8.10
2018-08-03T06:14:57.457Z,7.77
2018-08-03T06:17:25.302Z,7.37
2018-08-03T06:19:53.133Z,8.33
2018-08-03T06:22:21.013Z,7.70
2018-08-03T06:24:48.913Z,7.33
2018-08-03T06:27:16.769Z,7.50
2018-08-03T06:29:44.683Z,7.40
2018-08-03T06:32:12.538Z,7.30
2018-08-03T06:34:40.437Z,6.83
2018-08-03T06:37:08.536Z,7.40
2018-08-03T06:39:36.413Z,7.40
2018-08-03T06:42:04.303Z,7.03
2018-08-03T06:44:32.175Z,6.63
2018-08-03T06:47:00.019Z,6.70
2018-08-03T06:49:27.854Z,6.30
2018-08-03T06:51:55.739Z,7.00
2018-08-03T06:54:23.558Z,6.83
2018-08-03T06:56:51.368Z,6.73
2018-08-03T06:59:19.284Z,6.30
2018-08-03T07:01:47.185Z,7.17
2018-08-03T07:04:15.075Z,7.13
2018-08-03T07:06:42.899Z,7.50
2018-08-03T07:09:11.939Z,6.97
2018-08-03T07:11:39.834Z,7.23
2018-08-03T07:14:07.792Z,7.53
2018-08-03T07:16:35.749Z,6.87
2018-08-03T07:19:03.728Z,7.10
2018-08-03T07:21:31.566Z,6.77
2018-08-03T07:23:59.429Z,7.07
2018-08-03T07:26:27.269Z,7.10
2018-08-03T07:28:55.106Z,7.27
2018-08-03T07:31:23.034Z,6.93
2018-08-03T07:33:50.860Z,7.60
2018-08-03T07:36:18.814Z,7.23
2018-08-03T07:38:46.936Z,7.00
2018-08-03T07:41:14.766Z,7.63
2018-08-03T07:43:42.611Z,8.10
2018-08-03T07:46:10.525Z,7.70
2018-08-03T07:48:38.389Z,7.23
2018-08-03T07:51:06.229Z,8.07
2018-08-03T07:53:34.092Z,7.67
2018-08-03T07:56:01.941Z,8.67
2018-08-03T07:58:29.764Z,8.80
2018-08-03T08:00:57.873Z,7.87
2018-08-03T08:03:25.710Z,8.13
2018-08-03T08:05:53.590Z,7.77
2018-08-03T08:08:21.426Z,7.87
2018-08-03T08:10:49.370Z,8.57
2018-08-03T08:13:17.241Z,8.37
2018-08-03T08:15:45.137Z,8.27
2018-08-03T08:18:12.965Z,7.70
2018-08-03T08:20:40.791Z,7.63
2018-08-03T08:23:08.613Z,8.23
2018-08-03T08:25:36.484Z,7.87
2018-08-03T08:28:04.338Z,7.43
2018-08-03T08:30:32.273Z,7.93
2018-08-03T08:33:00.155Z,7.70
2018-08-03T08:35:27.982Z,7.97
2018-08-03T08:37:55.872Z,7.60
2018-08-03T08:40:23.781Z,8.40
2018-08-03T08:42:51.605Z,8.33
2018-08-03T08:45:19.490Z,8.70
2018-08-03T08:47:47.336Z,7.97
2018-08-03T08:50:15.264Z,8.37
2018-08-03T08:52:43.163Z,8.33
2018-08-03T08:55:11.005Z,8.60
2018-08-03T08:57:38.821Z,7.93
2018-08-03T09:00:06.733Z,8.00
2018-08-03T09:02:35.603Z,8.17
2018-08-03T09:05:03.557Z,7.80
2018-08-03T09:07:31.519Z,8.80
2018-08-03T09:09:59.378Z,8.23
2018-08-03T09:12:27.221Z,8.30
2018-08-03T09:14:55.600Z,8.40
2018-08-03T09:17:23.432Z,8.13
2018-08-03T09:19:51.583Z,8.63
2018-08-03T09:22:19.599Z,8.73
2018-08-03T09:24:47.472Z,7.90
2018-08-03T09:27:15.345Z,8.53
2018-08-03T09:29:43.181Z,8.73
2018-08-03T09:32:11.071Z,8.10
2018-08-03T09:34:38.917Z,8.00
2018-08-03T09:37:06.802Z,8.33
2018-08-03T09:39:34.679Z,7.87
2018-08-03T09:42:02.545Z,8.90
2018-08-03T09:44:30.445Z,8.03
2018-08-03T09:46:58.262Z,8.27
2018-08-03T09:49:26.089Z,8.03
2018-08-03T09:51:53.950Z,8.77
2018-08-03T09:54:21.821Z,8.13
2018-08-03T09:56:49.697Z,8.53
2018-08-03T09:59:17.541Z,8.33
2018-08-03T10:01:45.434Z,8.30
2018-08-03T10:04:13.326Z,8.70
2018-08-03T10:06:41.170Z,8.00
2018-08-03T10:09:09.141Z,8.23
2018-08-03T10:11:36.996Z,8.40
2018-08-03T10:14:04.874Z,8.77
2018-08-03T10:16:32.782Z,8.47
2018-08-03T10:19:00.636Z,8.33
2018-08-03T10:21:28.487Z,8.40
2018-08-03T10:23:56.369Z,8.90
2018-08-03T10:26:24.242Z,8.27
2018-08-03T10:28:52.416Z,8.20
2018-08-03T10:31:20.323Z,8.67
2018-08-03T10:33:48.171Z,7.90
2018-08-03T10:36:16.001Z,8.13
2018-08-03T10:38:43.862Z,7.80
2018-08-03T10:41:11.730Z,8.50
2018-08-03T10:43:39.606Z,8.37
2018-08-03T10:46:07.499Z,7.80
2018-08-03T10:48:35.401Z,8.50
2018-08-03T10:51:03.320Z,7.90
2018-08-03T10:53:31.498Z,9.10
2018-08-03T10:55:59.408Z,8.57
2018-08-03T10:58:27.593Z,7.97
2018-08-03T11:00:55.458Z,8.13
2018-08-03T11:03:23.389Z,8.63
2018-08-03T11:05:51.237Z,8.70
2018-08-03T11:08:19.097Z,8.27
2018-08-03T11:10:47.082Z,8.40
2018-08-03T11:13:15.013Z,8.60
2018-08-03T11:15:42.945Z,8.57
2018-08-03T11:18:11.349Z,8.10
2018-08-03T11:20:40.103Z,9.20
2018-08-03T11:23:07.964Z,8.90
2018-08-03T11:25:35.820Z,8.27
2018-08-03T11:28:03.801Z,8.30
2018-08-03T11:30:31.672Z,8.43
2018-08-03T11:32:59.541Z,8.43
2018-08-03T11:35:27.431Z,8.40
2018-08-03T11:37:55.261Z,9.07
2018-08-03T11:40:23.110Z,7.93
2018-08-03T11:42:50.969Z,7.87
2018-08-03T11:45:18.902Z,7.80
2018-08-03T11:47:46.737Z,8.40
2018-08-03T11:50:14.586Z,7.83
2018-08-03T11:52:42.480Z,7.87
2018-08-03T11:55:10.344Z,8.33
2018-08-03T11:57:38.215Z,7.70
2018-08-03T12:00:06.323Z,7.80
2018-08-03T12:02:34.269Z,8.30
2018-08-03T12:05:02.161Z,7.00
2018-08-03T12:07:30.033Z,7.77
2018-08-03T12:09:57.881Z,7.77
2018-08-03T12:12:25.911Z,7.60
2018-08-03T12:14:53.718Z,7.40
2018-08-03T12:17:21.598Z,7.83
2018-08-03T12:19:49.742Z,7.27
2018-08-03T12:22:17.614Z,6.80
2018-08-03T12:24:45.454Z,7.20
2018-08-03T12:27:13.319Z,7.80
2018-08-03T12:29:41.231Z,6.70
2018-08-03T12:32:09.078Z,7.50
2018-08-03T12:34:36.977Z,7.40
2018-08-03T12:37:04.951Z,7.03
2018-08-03T12:39:32.887Z,7.70
2018-08-03T12:42:00.805Z,7.10
2018-08-03T12:44:28.657Z,7.67
2018-08-03T12:46:56.506Z,6.90
2018-08-03T12:49:24.341Z,6.90
2018-08-03T12:51:52.231Z,7.50
2018-08-03T12:54:20.110Z,6.83
2018-08-03T12:56:48.015Z,6.70
2018-08-03T12:59:15.832Z,6.83
2018-08-03T13:01:43.665Z,7.37
2018-08-03T13:04:11.492Z,6.90
2018-08-03T13:06:39.358Z,6.13
2018-08-03T13:09:07.604Z,5.97
2018-08-03T13:11:35.516Z,6.13
2018-08-03T13:14:03.445Z,7.53
2018-08-03T13:16:31.294Z,6.60
2018-08-03T13:18:59.253Z,6.03
2018-08-03T13:21:34.302Z,7.20
2018-08-03T13:24:02.734Z,6.43
2018-08-03T13:26:30.695Z,6.10
2018-08-03T13:28:59.036Z,5.87
2018-08-03T13:31:27.853Z,5.93
2018-08-03T13:33:55.776Z,5.63
2018-08-03T13:36:24.835Z,5.73
2018-08-03T13:38:53.053Z,5.60
2018-08-03T13:41:20.962Z,5.83
2018-08-03T13:43:48.870Z,5.80
2018-08-03T13:46:17.170Z,5.90
2018-08-03T13:48:46.193Z,6.50
2018-08-03T13:51:15.061Z,5.90
2018-08-03T13:53:43.635Z,6.23
2018-08-03T13:56:12.282Z,5.70
2018-08-03T13:58:40.997Z,5.70
2018-08-03T14:01:19.990Z,6.10
2018-08-03T14:03:47.901Z,5.50
2018-08-03T14:06:15.765Z,5.57
2018-08-03T14:08:45.508Z,5.30
2018-08-03T14:11:14.188Z,5.60
2018-08-03T14:13:42.149Z,5.10
2018-08-03T14:16:10.300Z,5.40
2018-08-03T14:18:38.470Z,5.30
2018-08-03T14:21:06.447Z,5.10
2018-08-03T14:23:34.343Z,4.83
2018-08-03T14:26:02.320Z,5.20
2018-08-03T14:28:30.206Z,5.10
2018-08-03T14:30:58.119Z,5.10
2018-08-03T14:33:26.104Z,5.73
2018-08-03T14:35:54.280Z,5.53
2018-08-03T14:38:22.179Z,5.43
2018-08-03T14:40:50.094Z,5.63
2018-08-03T14:43:17.990Z,5.73
2018-08-03T14:45:45.863Z,5.23
2018-08-03T14:48:13.843Z,6.50
2018-08-03T14:50:41.725Z,5.80
2018-08-03T14:53:09.731Z,6.00
2018-08-03T14:55:37.598Z,5.77
2018-08-03T14:58:05.968Z,5.87
2018-08-03T15:00:33.790Z,6.00
2018-08-03T15:03:01.678Z,5.00
2018-08-03T15:05:30.615Z,5.70
2018-08-03T15:07:58.572Z,5.97
2018-08-03T15:10:26.483Z,5.00
2018-08-03T15:12:54.338Z,5.57
2018-08-03T15:15:22.217Z,5.63
2018-08-03T15:17:50.107Z,5.50
2018-08-03T15:20:17.986Z,6.03
2018-08-03T15:22:45.858Z,5.83
2018-08-03T15:25:13.684Z,5.40
2018-08-03T15:27:41.539Z,6.00
2018-08-03T15:30:10.729Z,5.63
2018-08-03T15:32:38.596Z,5.10
2018-08-03T15:35:06.825Z,5.63
2018-08-03T15:37:34.801Z,5.40
2018-08-03T15:40:02.835Z,5.73
2018-08-03T15:42:30.781Z,4.97
2018-08-03T15:44:58.606Z,5.37
2018-08-03T15:47:26.829Z,5.20
2018-08-03T15:49:54.849Z,5.20
2018-08-03T15:52:22.748Z,5.60
2018-08-03T15:54:51.056Z,5.73
2018-08-03T15:57:18.936Z,5.43
2018-08-03T15:59:46.789Z,5.17
2018-08-03T16:02:14.777Z,5.30
2018-08-03T16:04:42.610Z,5.53
2018-08-03T16:07:10.463Z,5.83
2018-08-03T16:09:38.310Z,5.63
2018-08-03T16:12:06.199Z,5.57
2018-08-03T16:14:34.110Z,5.40
2018-08-03T16:17:02.037Z,6.07
2018-08-03T16:19:29.874Z,5.73
2018-08-03T16:21:57.789Z,7.73
2018-08-03T16:24:25.702Z,5.93
2018-08-03T16:26:53.659Z,6.37
2018-08-03T16:29:21.518Z,6.33
2018-08-03T16:31:49.642Z,6.63
2018-08-03T16:34:17.493Z,6.57
2018-08-03T16:36:45.349Z,8.37
2018-08-03T16:39:13.217Z,7.93
2018-08-03T16:41:41.081Z,7.00
2018-08-03T16:44:09.051Z,7.33
2018-08-03T16:46:36.968Z,7.50
2018-08-03T16:49:04.925Z,6.93
2018-08-03T16:51:32.810Z,6.90
2018-08-03T16:54:00.663Z,6.40
2018-08-03T16:56:28.518Z,6.37
2018-08-03T16:58:56.379Z,6.80
2018-08-03T17:01:24.510Z,7.10
2018-08-03T17:03:52.434Z,6.53
2018-08-03T17:06:20.305Z,7.00
2018-08-03T17:08:48.182Z,7.73
2018-08-03T17:11:16.210Z,7.23
2018-08-03T17:13:44.084Z,7.73
2018-08-03T17:16:11.946Z,8.20
2018-08-03T17:18:39.918Z,7.63
2018-08-03T17:21:08.163Z,7.53
2018-08-03T17:23:36.061Z,8.70
2018-08-03T17:26:04.102Z,7.97
2018-08-03T17:28:32.030Z,7.87
2018-08-03T17:31:00.009Z,8.00
2018-08-03T17:33:27.912Z,8.27
2018-08-03T17:35:56.169Z,7.37
2018-08-03T17:38:24.054Z,7.57
2018-08-03T17:40:52.037Z,8.50
2018-08-03T17:43:19.955Z,7.90
2018-08-03T17:45:47.866Z,8.00
2018-08-03T17:48:15.897Z,8.03
2018-08-03T17:50:43.841Z,7.93
2018-08-03T17:53:11.886Z,7.63
2018-08-03T17:55:39.762Z,7.97
2018-08-03T17:58:07.618Z,7.87
2018-08-03T18:00:35.490Z,8.47
2018-08-03T18:03:05.286Z,7.57
2018-08-03T18:05:33.315Z,7.63
2018-08-03T18:08:01.194Z,8.07
2018-08-03T18:10:29.253Z,6.97
2018-08-03T18:12:57.385Z,8.70
2018-08-03T18:15:26.642Z,8.03
2018-08-03T18:17:54.909Z,8.53
2018-08-03T18:20:22.877Z,8.10
2018-08-03T18:22:50.777Z,8.17
2018-08-03T18:25:19.026Z,8.03
2018-08-03T18:27:46.911Z,8.30
2018-08-03T18:30:14.795Z,7.93
2018-08-03T18:32:42.829Z,8.13
2018-08-03T18:35:10.718Z,9.27
2018-08-03T18:37:38.590Z,8.23
2018-08-03T18:40:08.442Z,8.17
2018-08-03T18:42:36.338Z,7.77
2018-08-03T18:45:05.789Z,8.50
2018-08-03T18:47:33.674Z,8.70
2018-08-03T18:50:01.581Z,8.57
2018-08-03T18:52:29.589Z,8.53
2018-08-03T18:54:58.010Z,8.77
2018-08-03T18:57:26.171Z,8.27
2018-08-03T18:59:54.039Z,8.97
2018-08-03T19:02:21.939Z,7.53
2018-08-03T19:04:49.892Z,8.50
2018-08-03T19:07:18.171Z,8.87
2018-08-03T19:09:46.147Z,9.70
2018-08-03T19:12:14.057Z,9.47
2018-08-03T19:14:42.014Z,8.60
2018-08-03T19:17:09.920Z,10.13
2018-08-03T19:19:38.711Z,9.07
2018-08-03T19:22:06.617Z,9.17
2018-08-03T19:24:34.514Z,9.10
2018-08-03T19:27:02.424Z,8.20
2018-08-03T19:29:30.325Z,8.03
2018-08-03T19:31:59.302Z,9.20
2018-08-03T19:34:27.212Z,7.80
2018-08-03T19:36:55.140Z,7.90
2018-08-03T19:39:23.010Z,7.73
2018-08-03T19:41:50.870Z,7.93
2018-08-03T19:44:18.774Z,8.37
2018-08-03T19:46:46.626Z,7.60
2018-08-03T19:49:14.514Z,8.00
2018-08-03T19:51:42.369Z,8.13
2018-08-03T19:54:10.218Z,8.40
2018-08-03T19:56:38.065Z,8.53
2018-08-03T19:59:06.202Z,8.60
2018-08-03T20:01:34.026Z,8.27
2018-08-03T20:04:01.973Z,7.93
2018-08-03T20:06:29.829Z,8.50
2018-08-03T20:08:57.689Z,8.70
2018-08-03T20:11:25.573Z,8.50
2018-08-03T20:13:53.532Z,8.40
2018-08-03T20:16:21.453Z,8.73
2018-08-03T20:18:49.345Z,8.00
2018-08-03T20:21:17.233Z,8.07
2018-08-03T20:23:45.206Z,7.60
2018-08-03T20:26:13.057Z,7.00
2018-08-03T20:28:40.939Z,7.27
2018-08-03T20:31:08.787Z,7.77
2018-08-03T20:33:36.669Z,7.20
2018-08-03T20:36:04.545Z,7.50
2018-08-03T20:38:32.620Z,7.27
2018-08-03T20:41:00.525Z,6.83
2018-08-03T20:43:28.383Z,7.00
2018-08-03T20:45:56.272Z,6.87
2018-08-03T20:48:24.158Z,7.73
2018-08-03T20:50:52.401Z,6.80
2018-08-03T20:53:20.283Z,6.60
2018-08-03T20:55:48.127Z,7.10
2018-08-03T20:58:16.035Z,7.07
2018-08-03T21:00:43.865Z,7.27
2018-08-03T21:03:12.110Z,7.63
2018-08-03T21:05:39.978Z,6.93
2018-08-03T21:08:07.829Z,6.87
2018-08-03T21:10:35.742Z,7.17
2018-08-03T21:13:03.678Z,7.97
2018-08-03T21:15:31.670Z,7.87
2018-08-03T21:17:59.620Z,8.17
2018-08-03T21:20:27.819Z,7.73
2018-08-03T21:22:55.694Z,7.47
2018-08-03T21:25:23.593Z,7.90
2018-08-03T21:27:51.450Z,7.80
2018-08-03T21:30:19.386Z,9.07
2018-08-03T21:32:47.239Z,21.07
2018-08-03T21:35:15.102Z,8.97
2018-08-03T21:37:42.981Z,8.13
2018-08-03T21:40:10.865Z,7.40
2018-08-03T21:42:38.750Z,8.00
2018-08-03T21:45:06.718Z,7.53
2018-08-03T21:47:34.579Z,7.13
2018-08-03T21:50:02.824Z,6.77
2018-08-03T21:52:31.366Z,7.50
2018-08-03T21:54:59.240Z,7.10
2018-08-03T21:57:27.265Z,6.50
2018-08-03T21:59:55.208Z,7.27
2018-08-03T22:02:23.168Z,6.73
2018-08-03T22:04:51.010Z,7.47
2018-08-03T22:07:19.023Z,6.50
2018-08-03T22:09:46.945Z,7.30
2018-08-03T22:12:15.011Z,6.97
2018-08-03T22:14:43.011Z,8.03
2018-08-03T22:17:10.961Z,7.20
2018-08-03T22:19:38.865Z,6.50
2018-08-03T22:22:06.921Z,6.80
2018-08-03T22:24:34.952Z,6.77
2018-08-03T22:27:03.030Z,6.37
2018-08-03T22:29:30.873Z,6.90
2018-08-03T22:31:58.815Z,7.30
2018-08-03T22:34:26.737Z,8.53
2018-08-03T22:36:54.594Z,7.70
2018-08-03T22:39:22.453Z,7.30
2018-08-03T22:41:50.298Z,8.00
2018-08-03T22:44:18.145Z,7.10
2018-08-03T22:46:46.013Z,7.47
2018-08-03T22:49:13.869Z,7.63
2018-08-03T22:51:41.708Z,7.80
2018-08-03T22:54:09.561Z,7.40
2018-08-03T22:56:37.440Z,7.67
2018-08-03T22:59:05.505Z,7.03
2018-08-03T23:01:33.370Z,6.93
2018-08-03T23:04:01.251Z,6.80
2018-08-03T23:06:29.097Z,7.33
2018-08-03T23:08:56.971Z,7.30
2018-08-03T23:11:24.910Z,6.87
2018-08-03T23:13:52.803Z,6.90
2018-08-03T23:16:20.686Z,6.60
2018-08-03T23:18:48.512Z,7.03
2018-08-03T23:21:16.342Z,6.97
2018-08-03T23:23:44.222Z,6.63
2018-08-03T23:26:12.090Z,7.50
2018-08-03T23:28:39.929Z,7.07
2018-08-03T23:31:07.774Z,7.80
2018-08-03T23:33:35.626Z,8.17
2018-08-03T23:36:03.572Z,8.90
2018-08-03T23:38:31.461Z,8.83
2018-08-03T23:40:59.337Z,8.00
2018-08-03T23:43:27.225Z,7.90
2018-08-03T23:45:55.069Z,8.87
2018-08-03T23:48:22.957Z,7.93
2018-08-03T23:50:50.801Z,8.17
2018-08-03T23:53:18.686Z,8.30
2018-08-03T23:55:46.531Z,8.30
2018-08-03T23:58:14.408Z,7.70
